Mason, Ohio
Current Conditions -  °F | °C
As of 2:53 AM on Thursday 27 Nov 2014 (Local Time) from KHAO Reporting Station
Overcast Overcast  
Wind Chill: 23°   Ceiling: 11000
Heat Index: 29°   Visibility: 9mi
Dew Point: 24°   Wind: 6mph
Humidity: 82%   Direction: 330°NNW
Pressure: 30.11"   Gusts: NA
Location:  39.36°N, 84.3°W
Report Text: KHAO 270753Z AUTO 33005KT 9SM OVC110 M02/M04 A3011 RMK AO2 SLP202 T10171044
Loading
Personal Weather Stations






























Interactive Weather Map New forecast layout! Learn more

10-Day Weather Forecast

Advertisements
Track Severe Weather on mobile